sensor_id;sensor_type;location;lat;lon;timestamp;pressure;altitude;pressure_sealevel;temperature;humidity
20003;BME280;10162;41.600;23.806;2023-04-26T00:05:50;94242.28;;;7.70;100.00
20003;BME280;10162;41.600;23.806;2023-04-26T00:08:16;94232.09;;;7.68;100.00
20003;BME280;10162;41.600;23.806;2023-04-26T00:14:36;94239.88;;;7.81;100.00
20003;BME280;10162;41.600;23.806;2023-04-26T00:17:03;94250.91;;;7.97;100.00
20003;BME280;10162;41.600;23.806;2023-04-26T00:19:29;94235.50;;;7.95;100.00
20003;BME280;10162;41.600;23.806;2023-04-26T00:24:50;94232.28;;;8.06;100.00
20003;BME280;10162;41.600;23.806;2023-04-26T00:27:16;94217.66;;;7.72;100.00
20003;BME280;10162;41.600;23.806;2023-04-26T00:29:42;94215.06;;;7.46;100.00
20003;BME280;10162;41.600;23.806;2023-04-26T00:32:08;94219.59;;;7.24;100.00
20003;BME280;10162;41.600;23.806;2023-04-26T00:34:35;94225.19;;;7.21;100.00
20003;BME280;10162;41.600;23.806;2023-04-26T00:37:01;94233.41;;;7.31;100.00
20003;BME280;10162;41.600;23.806;2023-04-26T00:39:27;94227.81;;;7.41;100.00
20003;BME280;10162;41.600;23.806;2023-04-26T00:42:10;94228.81;;;7.46;100.00
20003;BME280;10162;41.600;23.806;2023-04-26T00:44:37;94223.81;;;7.38;100.00
20003;BME280;10162;41.600;23.806;2023-04-26T00:47:05;94245.06;;;7.62;100.00
20003;BME280;10162;41.600;23.806;2023-04-26T00:49:33;94231.28;;;7.61;100.00
20003;BME280;10162;41.600;23.806;2023-04-26T00:52:03;94230.25;;;7.49;100.00
20003;BME280;10162;41.600;23.806;2023-04-26T00:54:28;94228.81;;;7.27;100.00
20003;BME280;10162;41.600;23.806;2023-04-26T00:56:55;94236.00;;;7.31;100.00
20003;BME280;10162;41.600;23.806;2023-04-26T00:59:21;94248.47;;;7.56;100.00
20003;BME280;10162;41.600;23.806;2023-04-26T01:05:14;94235.28;;;7.57;100.00
20003;BME280;10162;41.600;23.806;2023-04-26T01:07:39;94230.63;;;7.53;100.00
20003;BME280;10162;41.600;23.806;2023-04-26T01:10:08;94247.03;;;7.40;100.00
20003;BME280;10162;41.600;23.806;2023-04-26T01:12:34;94241.88;;;7.60;100.00
20003;BME280;10162;41.600;23.806;2023-04-26T01:15:04;94247.91;;;7.73;100.00
20003;BME280;10162;41.600;23.806;2023-04-26T01:17:30;94250.09;;;7.76;100.00
20003;BME280;10162;41.600;23.806;2023-04-26T01:23:35;94271.69;;;7.77;100.00
20003;BME280;10162;41.600;23.806;2023-04-26T01:26:04;94251.88;;;7.63;100.00
20003;BME280;10162;41.600;23.806;2023-04-26T01:28:30;94242.50;;;7.88;100.00
20003;BME280;10162;41.600;23.806;2023-04-26T01:34:27;94210.84;;;8.44;100.00
20003;BME280;10162;41.600;23.806;2023-04-26T01:36:53;94228.06;;;8.38;100.00
20003;BME280;10162;41.600;23.806;2023-04-26T01:39:19;94222.66;;;8.40;100.00
20003;BME280;10162;41.600;23.806;2023-04-26T01:45:38;94234.28;;;7.78;100.00
20003;BME280;10162;41.600;23.806;2023-04-26T01:48:23;94228.88;;;7.73;100.00
20003;BME280;10162;41.600;23.806;2023-04-26T01:54:57;94212.84;;;7.69;100.00
20003;BME280;10162;41.600;23.806;2023-04-26T01:57:25;94231.69;;;8.04;100.00
20003;BME280;10162;41.600;23.806;2023-04-26T02:03:45;94217.25;;;7.75;100.00
20003;BME280;10162;41.600;23.806;2023-04-26T02:06:11;94202.03;;;7.53;100.00
20003;BME280;10162;41.600;23.806;2023-04-26T02:08:37;94227.03;;;7.54;100.00
20003;BME280;10162;41.600;23.806;2023-04-26T02:14:57;94228.06;;;7.59;100.00
20003;BME280;10162;41.600;23.806;2023-04-26T02:17:25;94210.03;;;7.38;100.00
20003;BME280;10162;41.600;23.806;2023-04-26T02:23:45;94230.94;;;7.10;100.00
20003;BME280;10162;41.600;23.806;2023-04-26T02:26:12;94211.53;;;6.99;100.00
20003;BME280;10162;41.600;23.806;2023-04-26T02:28:38;94223.94;;;7.04;100.00
20003;BME280;10162;41.600;23.806;2023-04-26T02:34:02;94206.91;;;6.95;100.00
20003;BME280;10162;41.600;23.806;2023-04-26T02:36:28;94225.13;;;7.08;100.00
20003;BME280;10162;41.600;23.806;2023-04-26T02:38:56;94211.38;;;7.14;100.00
20003;BME280;10162;41.600;23.806;2023-04-26T02:45:15;94216.69;;;6.93;100.00
20003;BME280;10162;41.600;23.806;2023-04-26T02:47:41;94207.00;;;6.67;100.00
20003;BME280;10162;41.600;23.806;2023-04-26T02:50:08;94204.13;;;7.03;100.00
20003;BME280;10162;41.600;23.806;2023-04-26T02:52:36;94197.38;;;7.15;100.00
20003;BME280;10162;41.600;23.806;2023-04-26T02:55:06;94213.19;;;7.27;100.00
20003;BME280;10162;41.600;23.806;2023-04-26T02:57:32;94209.03;;;7.45;100.00
20003;BME280;10162;41.600;23.806;2023-04-26T03:00:20;94221.56;;;7.16;100.00
20003;BME280;10162;41.600;23.806;2023-04-26T03:02:47;94205.53;;;6.99;100.00
20003;BME280;10162;41.600;23.806;2023-04-26T03:05:13;94208.22;;;6.71;100.00
20003;BME280;10162;41.600;23.806;2023-04-26T03:07:39;94209.75;;;6.59;100.00
20003;BME280;10162;41.600;23.806;2023-04-26T03:10:23;94195.91;;;6.45;100.00
20003;BME280;10162;41.600;23.806;2023-04-26T03:12:49;94194.16;;;6.52;100.00
20003;BME280;10162;41.600;23.806;2023-04-26T03:15:15;94210.97;;;6.63;100.00
20003;BME280;10162;41.600;23.806;2023-04-26T03:17:44;94215.09;;;6.51;100.00
20003;BME280;10162;41.600;23.806;2023-04-26T03:23:36;94208.41;;;6.70;100.00
20003;BME280;10162;41.600;23.806;2023-04-26T03:26:02;94199.19;;;6.67;100.00
20003;BME280;10162;41.600;23.806;2023-04-26T03:28:29;94221.88;;;6.86;100.00
20003;BME280;10162;41.600;23.806;2023-04-26T03:33:55;94223.34;;;6.61;100.00
20003;BME280;10162;41.600;23.806;2023-04-26T03:36:21;94205.41;;;6.73;100.00
20003;BME280;10162;41.600;23.806;2023-04-26T03:38:47;94205.63;;;6.71;100.00
20003;BME280;10162;41.600;23.806;2023-04-26T03:44:34;94200.47;;;6.37;100.00
20003;BME280;10162;41.600;23.806;2023-04-26T03:47:00;94189.06;;;6.31;100.00
20003;BME280;10162;41.600;23.806;2023-04-26T03:49:27;94218.03;;;6.76;100.00
20003;BME280;10162;41.600;23.806;2023-04-26T03:56:01;94201.72;;;6.47;100.00
20003;BME280;10162;41.600;23.806;2023-04-26T03:58:31;94210.59;;;6.73;100.00
20003;BME280;10162;41.600;23.806;2023-04-26T04:01:00;94210.47;;;6.81;100.00
20003;BME280;10162;41.600;23.806;2023-04-26T04:03:26;94204.28;;;6.95;100.00
20003;BME280;10162;41.600;23.806;2023-04-26T04:05:54;94204.63;;;6.31;100.00
20003;BME280;10162;41.600;23.806;2023-04-26T04:08:20;94215.41;;;6.35;100.00
20003;BME280;10162;41.600;23.806;2023-04-26T04:14:00;94202.41;;;6.69;100.00
20003;BME280;10162;41.600;23.806;2023-04-26T04:16:27;94199.31;;;6.93;100.00
20003;BME280;10162;41.600;23.806;2023-04-26T04:18:53;94184.97;;;7.11;100.00
20003;BME280;10162;41.600;23.806;2023-04-26T04:24:27;94217.44;;;7.47;100.00
20003;BME280;10162;41.600;23.806;2023-04-26T04:26:54;94230.47;;;7.67;100.00
20003;BME280;10162;41.600;23.806;2023-04-26T04:29:21;94221.47;;;7.83;100.00
20003;BME280;10162;41.600;23.806;2023-04-26T04:32:00;94198.84;;;8.10;100.00
20003;BME280;10162;41.600;23.806;2023-04-26T04:34:27;94222.66;;;8.46;100.00
20003;BME280;10162;41.600;23.806;2023-04-26T04:36:53;94237.13;;;9.00;100.00
20003;BME280;10162;41.600;23.806;2023-04-26T04:39:19;94221.13;;;8.90;100.00
20003;BME280;10162;41.600;23.806;2023-04-26T04:42:08;94245.66;;;9.27;100.00
20003;BME280;10162;41.600;23.806;2023-04-26T04:44:35;94238.97;;;9.37;100.00
20003;BME280;10162;41.600;23.806;2023-04-26T04:47:01;94222.66;;;9.48;100.00
20003;BME280;10162;41.600;23.806;2023-04-26T04:49:27;94228.81;;;9.61;100.00
20003;BME280;10162;41.600;23.806;2023-04-26T04:55:29;94230.88;;;9.45;100.00
20003;BME280;10162;41.600;23.806;2023-04-26T04:57:55;94237.47;;;9.54;100.00
20003;BME280;10162;41.600;23.806;2023-04-26T05:00:46;94247.56;;;9.76;100.00
20003;BME280;10162;41.600;23.806;2023-04-26T05:03:19;94220.03;;;9.80;100.00
20003;BME280;10162;41.600;23.806;2023-04-26T05:05:46;94213.16;;;9.85;100.00
20003;BME280;10162;41.600;23.806;2023-04-26T05:08:12;94206.97;;;9.80;100.00
20003;BME280;10162;41.600;23.806;2023-04-26T05:14:02;94220.16;;;9.91;100.00
20003;BME280;10162;41.600;23.806;2023-04-26T05:16:29;94210.25;;;10.00;100.00
20003;BME280;10162;41.600;23.806;2023-04-26T05:18:57;94209.06;;;9.71;100.00
20003;BME280;10162;41.600;23.806;2023-04-26T05:25:22;94195.16;;;9.77;100.00
20003;BME280;10162;41.600;23.806;2023-04-26T05:27:52;94201.34;;;9.83;100.00
20003;BME280;10162;41.600;23.806;2023-04-26T05:34:18;94211.63;;;9.78;100.00
20003;BME280;10162;41.600;23.806;2023-04-26T05:36:49;94208.66;;;9.43;100.00
20003;BME280;10162;41.600;23.806;2023-04-26T05:39:16;94198.81;;;9.45;100.00
20003;BME280;10162;41.600;23.806;2023-04-26T05:41:52;94229.91;;;9.40;100.00
20003;BME280;10162;41.600;23.806;2023-04-26T05:44:19;94219.72;;;9.38;100.00
20003;BME280;10162;41.600;23.806;2023-04-26T05:46:45;94220.81;;;9.56;100.00
20003;BME280;10162;41.600;23.806;2023-04-26T05:49:12;94213.66;;;9.76;100.00
20003;BME280;10162;41.600;23.806;2023-04-26T05:51:49;94202.50;;;9.62;100.00
20003;BME280;10162;41.600;23.806;2023-04-26T05:54:15;94220.00;;;9.55;100.00
20003;BME280;10162;41.600;23.806;2023-04-26T05:56:41;94212.34;;;9.60;100.00
20003;BME280;10162;41.600;23.806;2023-04-26T05:59:08;94218.88;;;9.44;100.00
20003;BME280;10162;41.600;23.806;2023-04-26T06:01:57;94223.84;;;9.84;100.00
20003;BME280;10162;41.600;23.806;2023-04-26T06:04:24;94191.59;;;9.72;100.00
20003;BME280;10162;41.600;23.806;2023-04-26T06:07:01;94199.03;;;9.68;100.00
20003;BME280;10162;41.600;23.806;2023-04-26T06:09:29;94201.50;;;9.88;100.00
20003;BME280;10162;41.600;23.806;2023-04-26T06:15:49;94219.78;;;10.19;100.00
20003;BME280;10162;41.600;23.806;2023-04-26T06:18:15;94210.28;;;9.69;100.00
20003;BME280;10162;41.600;23.806;2023-04-26T06:24:04;94204.94;;;9.88;100.00
20003;BME280;10162;41.600;23.806;2023-04-26T06:26:30;94207.75;;;10.12;100.00
20003;BME280;10162;41.600;23.806;2023-04-26T06:28:56;94212.34;;;10.41;100.00
20003;BME280;10162;41.600;23.806;2023-04-26T06:34:45;94224.03;;;10.57;100.00
20003;BME280;10162;41.600;23.806;2023-04-26T06:37:11;94222.81;;;10.59;100.00
20003;BME280;10162;41.600;23.806;2023-04-26T06:39:40;94217.44;;;10.05;100.00
20003;BME280;10162;41.600;23.806;2023-04-26T06:42:06;94218.13;;;10.25;100.00
20003;BME280;10162;41.600;23.806;2023-04-26T06:44:50;94216.69;;;10.65;100.00
20003;BME280;10162;41.600;23.806;2023-04-26T06:47:16;94204.75;;;10.58;100.00
20003;BME280;10162;41.600;23.806;2023-04-26T06:50:19;94225.59;;;10.64;100.00
20003;BME280;10162;41.600;23.806;2023-04-26T06:52:45;94208.25;;;10.27;100.00
20003;BME280;10162;41.600;23.806;2023-04-26T06:55:11;94201.91;;;10.59;100.00
20003;BME280;10162;41.600;23.806;2023-04-26T06:57:38;94212.00;;;10.92;100.00
20003;BME280;10162;41.600;23.806;2023-04-26T07:00:28;94225.63;;;11.31;100.00
20003;BME280;10162;41.600;23.806;2023-04-26T07:02:54;94215.69;;;11.21;100.00
20003;BME280;10162;41.600;23.806;2023-04-26T07:05:20;94207.84;;;11.21;100.00
20003;BME280;10162;41.600;23.806;2023-04-26T07:07:46;94224.09;;;11.23;100.00
20003;BME280;10162;41.600;23.806;2023-04-26T07:10:12;94216.44;;;11.40;100.00
20003;BME280;10162;41.600;23.806;2023-04-26T07:12:39;94220.13;;;11.50;100.00
20003;BME280;10162;41.600;23.806;2023-04-26T07:15:05;94228.94;;;11.68;100.00
20003;BME280;10162;41.600;23.806;2023-04-26T07:17:41;94220.34;;;11.49;100.00
20003;BME280;10162;41.600;23.806;2023-04-26T07:20:13;94226.38;;;11.79;100.00
20003;BME280;10162;41.600;23.806;2023-04-26T07:22:46;94229.50;;;11.88;100.00
20003;BME280;10162;41.600;23.806;2023-04-26T07:25:12;94232.50;;;12.26;100.00
20003;BME280;10162;41.600;23.806;2023-04-26T07:27:37;94223.28;;;12.24;100.00
20003;BME280;10162;41.600;23.806;2023-04-26T07:30:07;94218.84;;;12.59;100.00
20003;BME280;10162;41.600;23.806;2023-04-26T07:32:33;94229.31;;;12.48;100.00
20003;BME280;10162;41.600;23.806;2023-04-26T07:34:58;94224.88;;;12.60;100.00
20003;BME280;10162;41.600;23.806;2023-04-26T07:37:26;94214.16;;;12.61;100.00
20003;BME280;10162;41.600;23.806;2023-04-26T07:40:10;94229.53;;;12.93;100.00
20003;BME280;10162;41.600;23.806;2023-04-26T07:42:38;94241.16;;;13.08;100.00
20003;BME280;10162;41.600;23.806;2023-04-26T07:45:04;94254.34;;;13.37;100.00
20003;BME280;10162;41.600;23.806;2023-04-26T07:47:30;94230.88;;;13.07;100.00
20003;BME280;10162;41.600;23.806;2023-04-26T07:50:04;94231.19;;;13.62;100.00
20003;BME280;10162;41.600;23.806;2023-04-26T07:52:31;94252.94;;;13.74;100.00
20003;BME280;10162;41.600;23.806;2023-04-26T07:54:56;94217.63;;;13.25;100.00
20003;BME280;10162;41.600;23.806;2023-04-26T07:57:22;94228.16;;;13.13;100.00
20003;BME280;10162;41.600;23.806;2023-04-26T07:59:48;94214.81;;;13.15;100.00
20003;BME280;10162;41.600;23.806;2023-04-26T08:02:15;94234.00;;;14.34;100.00
20003;BME280;10162;41.600;23.806;2023-04-26T08:04:47;94219.25;;;14.16;99.54
20003;BME280;10162;41.600;23.806;2023-04-26T08:07:19;94228.16;;;14.32;100.00
20003;BME280;10162;41.600;23.806;2023-04-26T08:09:45;94214.66;;;13.50;100.00
20003;BME280;10162;41.600;23.806;2023-04-26T08:12:11;94210.53;;;12.62;100.00
20003;BME280;10162;41.600;23.806;2023-04-26T08:14:37;94194.38;;;12.94;100.00
20003;BME280;10162;41.600;23.806;2023-04-26T08:17:07;94204.16;;;13.50;100.00
20003;BME280;10162;41.600;23.806;2023-04-26T08:19:37;94211.59;;;13.01;100.00
20003;BME280;10162;41.600;23.806;2023-04-26T08:22:09;94210.09;;;13.17;100.00
20003;BME280;10162;41.600;23.806;2023-04-26T08:24:35;94209.69;;;12.97;100.00
20003;BME280;10162;41.600;23.806;2023-04-26T08:27:01;94207.19;;;12.90;100.00
20003;BME280;10162;41.600;23.806;2023-04-26T08:29:32;94205.97;;;12.46;100.00
20003;BME280;10162;41.600;23.806;2023-04-26T08:31:57;94219.31;;;12.33;100.00
20003;BME280;10162;41.600;23.806;2023-04-26T08:34:25;94215.56;;;12.64;100.00
20003;BME280;10162;41.600;23.806;2023-04-26T08:36:51;94212.94;;;12.29;100.00
20003;BME280;10162;41.600;23.806;2023-04-26T08:39:19;94218.06;;;12.47;100.00
20003;BME280;10162;41.600;23.806;2023-04-26T08:41:54;94225.00;;;12.30;100.00
20003;BME280;10162;41.600;23.806;2023-04-26T08:44:23;94240.13;;;12.16;100.00
20003;BME280;10162;41.600;23.806;2023-04-26T08:47:02;94213.13;;;12.04;100.00
20003;BME280;10162;41.600;23.806;2023-04-26T08:52:03;94237.31;;;12.29;100.00
20003;BME280;10162;41.600;23.806;2023-04-26T08:54:30;94238.53;;;12.27;100.00
20003;BME280;10162;41.600;23.806;2023-04-26T08:56:58;94214.03;;;12.10;100.00
20003;BME280;10162;41.600;23.806;2023-04-26T08:59:23;94207.19;;;12.09;100.00
20003;BME280;10162;41.600;23.806;2023-04-26T09:05:05;94212.03;;;12.47;100.00
20003;BME280;10162;41.600;23.806;2023-04-26T09:07:39;94230.13;;;12.48;100.00
20003;BME280;10162;41.600;23.806;2023-04-26T09:10:05;94217.16;;;12.41;100.00
20003;BME280;10162;41.600;23.806;2023-04-26T09:12:32;94215.88;;;12.44;100.00
20003;BME280;10162;41.600;23.806;2023-04-26T09:14:59;94219.19;;;12.51;100.00
20003;BME280;10162;41.600;23.806;2023-04-26T09:23:07;94245.41;;;12.51;100.00
20003;BME280;10162;41.600;23.806;2023-04-26T09:25:34;94217.00;;;12.02;100.00
20003;BME280;10162;41.600;23.806;2023-04-26T09:28:01;94242.78;;;12.63;100.00
20003;BME280;10162;41.600;23.806;2023-04-26T09:30:43;94224.88;;;12.48;100.00
20003;BME280;10162;41.600;23.806;2023-04-26T09:33:11;94233.88;;;12.87;100.00
20003;BME280;10162;41.600;23.806;2023-04-26T09:35:41;94204.41;;;13.08;100.00
20003;BME280;10162;41.600;23.806;2023-04-26T09:38:11;94196.97;;;13.05;100.00
20003;BME280;10162;41.600;23.806;2023-04-26T09:40:49;94209.50;;;13.38;100.00
20003;BME280;10162;41.600;23.806;2023-04-26T09:43:17;94184.50;;;12.72;100.00
20003;BME280;10162;41.600;23.806;2023-04-26T09:45:50;94207.13;;;13.25;100.00
20003;BME280;10162;41.600;23.806;2023-04-26T09:50:53;94180.53;;;13.95;100.00
20003;BME280;10162;41.600;23.806;2023-04-26T09:56:04;94171.00;;;14.77;100.00
20003;BME280;10162;41.600;23.806;2023-04-26T09:58:32;94173.19;;;15.29;100.00
20003;BME280;10162;41.600;23.806;2023-04-26T10:01:02;94175.03;;;15.07;93.82
20003;BME280;10162;41.600;23.806;2023-04-26T10:03:33;94162.56;;;15.19;93.97
20003;BME280;10162;41.600;23.806;2023-04-26T10:05:59;94165.06;;;14.87;93.68
20003;BME280;10162;41.600;23.806;2023-04-26T10:08:25;94177.31;;;15.20;91.18
20003;BME280;10162;41.600;23.806;2023-04-26T10:10:51;94160.91;;;14.91;95.33
20003;BME280;10162;41.600;23.806;2023-04-26T10:13:18;94177.59;;;15.23;93.77
20003;BME280;10162;41.600;23.806;2023-04-26T10:15:46;94163.63;;;15.45;92.49
20003;BME280;10162;41.600;23.806;2023-04-26T10:18:12;94160.47;;;14.99;95.24
20003;BME280;10162;41.600;23.806;2023-04-26T10:20:43;94170.25;;;14.82;96.84
20003;BME280;10162;41.600;23.806;2023-04-26T10:23:17;94134.91;;;14.73;95.72
20003;BME280;10162;41.600;23.806;2023-04-26T10:25:45;94161.75;;;14.03;98.57
20003;BME280;10162;41.600;23.806;2023-04-26T10:28:11;94143.91;;;14.38;95.98
20003;BME280;10162;41.600;23.806;2023-04-26T10:30:57;94109.63;;;14.50;92.96
20003;BME280;10162;41.600;23.806;2023-04-26T10:33:25;94132.59;;;14.04;95.91
20003;BME280;10162;41.600;23.806;2023-04-26T10:38:31;94142.41;;;14.64;95.09
20003;BME280;10162;41.600;23.806;2023-04-26T10:41:29;94145.47;;;14.78;93.77
20003;BME280;10162;41.600;23.806;2023-04-26T10:43:56;94140.91;;;14.68;93.47
20003;BME280;10162;41.600;23.806;2023-04-26T10:46:35;94123.09;;;14.37;94.79
20003;BME280;10162;41.600;23.806;2023-04-26T10:49:15;94109.56;;;14.28;94.84
20003;BME280;10162;41.600;23.806;2023-04-26T10:52:11;94128.81;;;14.34;91.08
20003;BME280;10162;41.600;23.806;2023-04-26T10:54:57;94111.88;;;14.08;92.51
20003;BME280;10162;41.600;23.806;2023-04-26T10:57:45;94137.75;;;14.33;93.36
20003;BME280;10162;41.600;23.806;2023-04-26T11:00:26;94123.94;;;14.59;92.12
20003;BME280;10162;41.600;23.806;2023-04-26T11:02:55;94128.66;;;14.79;92.03
20003;BME280;10162;41.600;23.806;2023-04-26T11:08:13;94133.56;;;14.92;85.92
20003;BME280;10162;41.600;23.806;2023-04-26T11:10:41;94127.38;;;15.03;85.25
20003;BME280;10162;41.600;23.806;2023-04-26T11:13:07;94111.66;;;15.35;82.73
20003;BME280;10162;41.600;23.806;2023-04-26T11:15:34;94117.84;;;15.51;85.16
20003;BME280;10162;41.600;23.806;2023-04-26T11:18:04;94119.50;;;15.30;85.87
20003;BME280;10162;41.600;23.806;2023-04-26T11:20:33;94103.91;;;16.14;82.09
20003;BME280;10162;41.600;23.806;2023-04-26T11:23:00;94100.16;;;17.04;82.57
20003;BME280;10162;41.600;23.806;2023-04-26T11:25:27;94101.28;;;17.28;77.95
20003;BME280;10162;41.600;23.806;2023-04-26T11:28:01;94109.03;;;18.06;76.94
20003;BME280;10162;41.600;23.806;2023-04-26T11:30:30;94112.16;;;17.42;73.42
20003;BME280;10162;41.600;23.806;2023-04-26T11:32:57;94098.31;;;17.15;69.08
20003;BME280;10162;41.600;23.806;2023-04-26T11:35:24;94108.06;;;17.04;65.73
20003;BME280;10162;41.600;23.806;2023-04-26T11:37:51;94099.00;;;17.83;62.64
20003;BME280;10162;41.600;23.806;2023-04-26T11:40:18;94097.41;;;18.02;59.71
20003;BME280;10162;41.600;23.806;2023-04-26T11:42:44;94065.97;;;17.70;59.66
20003;BME280;10162;41.600;23.806;2023-04-26T11:45:11;94095.47;;;17.31;58.64
20003;BME280;10162;41.600;23.806;2023-04-26T11:47:39;94091.78;;;17.38;56.29
20003;BME280;10162;41.600;23.806;2023-04-26T11:50:07;94100.94;;;17.00;54.90
20003;BME280;10162;41.600;23.806;2023-04-26T11:52:34;94079.13;;;17.40;55.93
20003;BME280;10162;41.600;23.806;2023-04-26T11:55:03;94076.56;;;16.77;56.17
20003;BME280;10162;41.600;23.806;2023-04-26T11:57:33;94096.53;;;16.63;57.07
20003;BME280;10162;41.600;23.806;2023-04-26T12:00:13;94116.59;;;17.26;56.03
20003;BME280;10162;41.600;23.806;2023-04-26T12:02:44;94102.50;;;16.96;57.92
20003;BME280;10162;41.600;23.806;2023-04-26T12:05:28;94098.81;;;16.91;57.06
20003;BME280;10162;41.600;23.806;2023-04-26T12:07:56;94115.47;;;17.02;58.28
20003;BME280;10162;41.600;23.806;2023-04-26T12:10:26;94122.25;;;16.83;57.54
20003;BME280;10162;41.600;23.806;2023-04-26T12:12:55;94104.09;;;16.07;59.15
20003;BME280;10162;41.600;23.806;2023-04-26T12:15:32;94117.31;;;15.76;60.58
20003;BME280;10162;41.600;23.806;2023-04-26T12:18:10;94104.63;;;15.19;62.13
20003;BME280;10162;41.600;23.806;2023-04-26T12:20:39;94109.63;;;15.69;62.55
20003;BME280;10162;41.600;23.806;2023-04-26T12:23:11;94100.25;;;15.83;61.78
20003;BME280;10162;41.600;23.806;2023-04-26T12:25:41;94092.03;;;16.11;63.35
20003;BME280;10162;41.600;23.806;2023-04-26T12:28:15;94092.59;;;16.24;63.88
20003;BME280;10162;41.600;23.806;2023-04-26T12:30:43;94076.56;;;16.30;63.98
20003;BME280;10162;41.600;23.806;2023-04-26T12:33:09;94098.22;;;16.32;65.19
20003;BME280;10162;41.600;23.806;2023-04-26T12:35:35;94087.81;;;16.16;62.04
20003;BME280;10162;41.600;23.806;2023-04-26T12:38:01;94096.88;;;16.30;61.91
20003;BME280;10162;41.600;23.806;2023-04-26T12:40:27;94103.63;;;16.10;64.99
20003;BME280;10162;41.600;23.806;2023-04-26T12:42:55;94097.28;;;15.75;68.57
20003;BME280;10162;41.600;23.806;2023-04-26T12:45:24;94090.91;;;15.44;74.20
20003;BME280;10162;41.600;23.806;2023-04-26T12:47:57;94106.19;;;15.15;74.08
20003;BME280;10162;41.600;23.806;2023-04-26T12:50:23;94103.56;;;15.15;76.73
20003;BME280;10162;41.600;23.806;2023-04-26T12:52:49;94098.22;;;15.10;79.12
20003;BME280;10162;41.600;23.806;2023-04-26T12:55:15;94104.94;;;15.22;82.53
20003;BME280;10162;41.600;23.806;2023-04-26T12:57:42;94106.97;;;15.42;79.98
20003;BME280;10162;41.600;23.806;2023-04-26T13:00:22;94114.88;;;15.69;79.30
20003;BME280;10162;41.600;23.806;2023-04-26T13:02:48;94116.34;;;15.33;79.98
20003;BME280;10162;41.600;23.806;2023-04-26T13:05:14;94131.44;;;15.96;78.72
20003;BME280;10162;41.600;23.806;2023-04-26T13:07:41;94128.56;;;15.44;80.55
20003;BME280;10162;41.600;23.806;2023-04-26T13:10:17;94127.13;;;15.85;87.33
20003;BME280;10162;41.600;23.806;2023-04-26T13:12:43;94128.84;;;14.72;87.11
20003;BME280;10162;41.600;23.806;2023-04-26T13:15:18;94129.44;;;15.01;91.13
20003;BME280;10162;41.600;23.806;2023-04-26T13:17:43;94125.28;;;14.62;95.03
20003;BME280;10162;41.600;23.806;2023-04-26T13:20:16;94128.53;;;13.97;96.14
20003;BME280;10162;41.600;23.806;2023-04-26T13:22:41;94127.47;;;14.31;94.80
20003;BME280;10162;41.600;23.806;2023-04-26T13:25:08;94140.19;;;14.01;98.37
20003;BME280;10162;41.600;23.806;2023-04-26T13:27:35;94142.59;;;13.57;96.45
20003;BME280;10162;41.600;23.806;2023-04-26T13:30:09;94135.94;;;14.00;97.34
20003;BME280;10162;41.600;23.806;2023-04-26T13:32:36;94148.50;;;14.31;98.17
20003;BME280;10162;41.600;23.806;2023-04-26T13:35:02;94154.34;;;14.17;94.14
20003;BME280;10162;41.600;23.806;2023-04-26T13:37:28;94152.91;;;13.76;93.87
20003;BME280;10162;41.600;23.806;2023-04-26T13:40:13;94168.81;;;13.86;99.75
20003;BME280;10162;41.600;23.806;2023-04-26T13:42:40;94163.44;;;13.47;100.00
20003;BME280;10162;41.600;23.806;2023-04-26T13:45:06;94158.03;;;13.54;100.00
20003;BME280;10162;41.600;23.806;2023-04-26T13:47:34;94162.88;;;13.17;98.15
20003;BME280;10162;41.600;23.806;2023-04-26T13:50:07;94163.38;;;12.91;100.00
20003;BME280;10162;41.600;23.806;2023-04-26T13:52:33;94169.06;;;12.99;100.00
20003;BME280;10162;41.600;23.806;2023-04-26T13:54:59;94180.09;;;12.61;98.50
20003;BME280;10162;41.600;23.806;2023-04-26T13:57:25;94194.03;;;13.02;93.78
20003;BME280;10162;41.600;23.806;2023-04-26T14:00:11;94212.09;;;11.64;86.55
20003;BME280;10162;41.600;23.806;2023-04-26T14:02:38;94211.91;;;12.18;91.12
20003;BME280;10162;41.600;23.806;2023-04-26T14:05:04;94205.81;;;11.65;90.58
20003;BME280;10162;41.600;23.806;2023-04-26T14:07:30;94199.81;;;12.29;95.31
20003;BME280;10162;41.600;23.806;2023-04-26T14:10:10;94214.38;;;12.60;100.00
20003;BME280;10162;41.600;23.806;2023-04-26T14:12:36;94212.69;;;12.65;100.00
20003;BME280;10162;41.600;23.806;2023-04-26T14:15:02;94220.31;;;12.67;100.00
20003;BME280;10162;41.600;23.806;2023-04-26T14:17:31;94213.13;;;12.86;100.00
20003;BME280;10162;41.600;23.806;2023-04-26T14:20:16;94215.88;;;12.56;100.00
20003;BME280;10162;41.600;23.806;2023-04-26T14:22:42;94218.63;;;12.49;100.00
20003;BME280;10162;41.600;23.806;2023-04-26T14:25:08;94224.38;;;11.63;100.00
20003;BME280;10162;41.600;23.806;2023-04-26T14:27:36;94221.47;;;12.13;100.00
20003;BME280;10162;41.600;23.806;2023-04-26T14:30:11;94245.53;;;12.45;100.00
20003;BME280;10162;41.600;23.806;2023-04-26T14:32:37;94228.47;;;11.59;100.00
20003;BME280;10162;41.600;23.806;2023-04-26T14:35:03;94239.13;;;12.17;100.00
20003;BME280;10162;41.600;23.806;2023-04-26T14:37:29;94245.53;;;12.45;100.00
20003;BME280;10162;41.600;23.806;2023-04-26T14:40:16;94252.91;;;12.48;100.00
20003;BME280;10162;41.600;23.806;2023-04-26T14:42:43;94248.78;;;12.17;100.00
20003;BME280;10162;41.600;23.806;2023-04-26T14:45:11;94245.03;;;12.13;100.00
20003;BME280;10162;41.600;23.806;2023-04-26T14:47:37;94263.56;;;11.99;100.00
20003;BME280;10162;41.600;23.806;2023-04-26T14:50:36;94269.69;;;11.93;100.00
20003;BME280;10162;41.600;23.806;2023-04-26T14:53:03;94255.00;;;11.92;100.00
20003;BME280;10162;41.600;23.806;2023-04-26T14:55:29;94252.59;;;11.91;100.00